sensor_id;sensor_type;location;lat;lon;timestamp;pressure;altitude;pressure_sealevel;temperature;humidity
46392;BME280;32098;49.448;7.904;2022-10-16T00:01:21;97862.88;;;13.59;92.77
46392;BME280;32098;49.448;7.904;2022-10-16T00:03:48;97942.66;;;14.05;92.76
46392;BME280;32098;49.448;7.904;2022-10-16T00:06:17;97940.25;;;14.09;92.57
46392;BME280;32098;49.448;7.904;2022-10-16T00:08:44;97942.44;;;14.12;92.58
46392;BME280;32098;49.448;7.904;2022-10-16T00:11:21;97923.28;;;13.98;92.30
46392;BME280;32098;49.448;7.904;2022-10-16T00:13:56;97947.53;;;14.08;92.10
46392;BME280;32098;49.448;7.904;2022-10-16T00:16:24;97897.28;;;13.67;91.98
46392;BME280;32098;49.448;7.904;2022-10-16T00:18:51;97938.03;;;13.96;92.07
46392;BME280;32098;49.448;7.904;2022-10-16T00:21:21;97945.09;;;14.07;92.09
46392;BME280;32098;49.448;7.904;2022-10-16T00:23:58;97879.53;;;13.61;92.09
46392;BME280;32098;49.448;7.904;2022-10-16T00:26:27;97951.19;;;13.97;92.17
46392;BME280;32098;49.448;7.904;2022-10-16T00:28:54;97826.28;;;13.16;92.04
46392;BME280;32098;49.448;7.904;2022-10-16T00:31:22;97921.53;;;13.77;92.60
46392;BME280;32098;49.448;7.904;2022-10-16T00:33:50;97954.97;;;14.01;92.46
46392;BME280;32098;49.448;7.904;2022-10-16T00:36:19;97952.81;;;13.98;92.59
46392;BME280;32098;49.448;7.904;2022-10-16T00:38:46;97946.84;;;13.91;92.59
46392;BME280;32098;49.448;7.904;2022-10-16T00:41:15;97952.81;;;13.98;92.51
46392;BME280;32098;49.448;7.904;2022-10-16T00:46:20;97949.50;;;13.86;93.19
46392;BME280;32098;49.448;7.904;2022-10-16T00:49:14;97959.44;;;13.86;93.85
46392;BME280;32098;49.448;7.904;2022-10-16T00:51:45;97936.66;;;13.88;93.81
46392;BME280;32098;49.448;7.904;2022-10-16T00:54:28;97939.56;;;13.87;93.33
46392;BME280;32098;49.448;7.904;2022-10-16T00:56:58;97944.72;;;13.93;93.15
46392;BME280;32098;49.448;7.904;2022-10-16T00:59:29;97943.91;;;13.93;93.32
46392;BME280;32098;49.448;7.904;2022-10-16T01:01:57;97928.50;;;13.78;93.15
46392;BME280;32098;49.448;7.904;2022-10-16T01:04:25;97936.66;;;13.88;93.30
46392;BME280;32098;49.448;7.904;2022-10-16T01:12:33;97940.41;;;13.92;93.11
46392;BME280;32098;49.448;7.904;2022-10-16T01:17:41;97940.84;;;13.79;93.06
46392;BME280;32098;49.448;7.904;2022-10-16T01:20:31;97971.00;;;13.91;92.83
46392;BME280;32098;49.448;7.904;2022-10-16T01:23:34;97970.97;;;13.86;93.45
46392;BME280;32098;49.448;7.904;2022-10-16T01:26:14;97946.66;;;13.66;93.85
46392;BME280;32098;49.448;7.904;2022-10-16T01:28:47;97958.81;;;13.79;93.83
46392;BME280;32098;49.448;7.904;2022-10-16T01:31:20;97916.94;;;13.46;93.36
46392;BME280;32098;49.448;7.904;2022-10-16T01:34:14;97962.78;;;13.71;93.41
46392;BME280;32098;49.448;7.904;2022-10-16T01:36:50;97944.69;;;13.56;94.04
46392;BME280;32098;49.448;7.904;2022-10-16T01:39:23;97962.69;;;13.61;94.37
46392;BME280;32098;49.448;7.904;2022-10-16T01:41:55;97932.94;;;13.36;95.20
46392;BME280;32098;49.448;7.904;2022-10-16T01:44:29;97961.44;;;13.42;95.72
46392;BME280;32098;49.448;7.904;2022-10-16T01:46:59;97967.06;;;13.40;96.80
46392;BME280;32098;49.448;7.904;2022-10-16T01:49:30;97974.53;;;13.38;97.04
46392;BME280;32098;49.448;7.904;2022-10-16T01:52:03;97916.56;;;13.06;97.44
46392;BME280;32098;49.448;7.904;2022-10-16T01:54:33;97955.50;;;13.40;97.54
46392;BME280;32098;49.448;7.904;2022-10-16T01:57:01;97889.94;;;12.99;97.28
46392;BME280;32098;49.448;7.904;2022-10-16T01:59:31;97965.22;;;13.46;97.15
46392;BME280;32098;49.448;7.904;2022-10-16T02:02:06;97961.91;;;13.60;96.81
46392;BME280;32098;49.448;7.904;2022-10-16T02:04:43;97934.22;;;13.55;96.52
46392;BME280;32098;49.448;7.904;2022-10-16T02:07:10;97923.31;;;13.40;95.91
46392;BME280;32098;49.448;7.904;2022-10-16T02:09:38;97953.81;;;13.55;96.09
46392;BME280;32098;49.448;7.904;2022-10-16T02:12:10;97966.56;;;13.70;95.96
46392;BME280;32098;49.448;7.904;2022-10-16T02:14:39;97959.56;;;13.69;95.99
46392;BME280;32098;49.448;7.904;2022-10-16T02:17:15;97955.72;;;13.60;96.01
46392;BME280;32098;49.448;7.904;2022-10-16T02:19:42;97950.59;;;13.58;95.76
46392;BME280;32098;49.448;7.904;2022-10-16T02:22:36;97898.56;;;13.28;95.72
46392;BME280;32098;49.448;7.904;2022-10-16T02:25:06;97968.09;;;13.66;95.85
46392;BME280;32098;49.448;7.904;2022-10-16T02:27:40;97940.66;;;13.54;95.91
46392;BME280;32098;49.448;7.904;2022-10-16T02:30:14;97901.69;;;13.20;95.92
46392;BME280;32098;49.448;7.904;2022-10-16T02:32:47;97949.78;;;13.53;95.86
46392;BME280;32098;49.448;7.904;2022-10-16T02:35:17;97985.38;;;13.75;95.39
46392;BME280;32098;49.448;7.904;2022-10-16T02:37:45;97944.34;;;13.48;95.57
46392;BME280;32098;49.448;7.904;2022-10-16T02:40:14;97917.38;;;13.33;95.39
46392;BME280;32098;49.448;7.904;2022-10-16T02:42:50;97973.03;;;13.74;95.30
46392;BME280;32098;49.448;7.904;2022-10-16T02:45:20;97980.56;;;13.77;95.02
46392;BME280;32098;49.448;7.904;2022-10-16T02:47:48;97956.91;;;13.74;94.68
46392;BME280;32098;49.448;7.904;2022-10-16T02:50:16;97979.59;;;13.88;94.49
46392;BME280;32098;49.448;7.904;2022-10-16T02:52:43;97920.97;;;13.48;93.94
46392;BME280;32098;49.448;7.904;2022-10-16T02:55:09;97958.19;;;13.66;93.88
46392;BME280;32098;49.448;7.904;2022-10-16T02:57:37;97906.09;;;13.36;93.81
46392;BME280;32098;49.448;7.904;2022-10-16T03:00:07;97922.28;;;13.46;94.15
46392;BME280;32098;49.448;7.904;2022-10-16T03:02:36;97977.78;;;13.67;94.65
46392;BME280;32098;49.448;7.904;2022-10-16T03:05:02;97961.56;;;13.52;95.35
46392;BME280;32098;49.448;7.904;2022-10-16T03:07:29;97967.47;;;13.54;94.71
46392;BME280;32098;49.448;7.904;2022-10-16T03:09:56;97991.75;;;13.69;94.89
46392;BME280;32098;49.448;7.904;2022-10-16T03:12:23;97872.44;;;12.91;94.42
46392;BME280;32098;49.448;7.904;2022-10-16T03:14:49;97951.81;;;13.46;94.39
46392;BME280;32098;49.448;7.904;2022-10-16T03:17:16;97948.69;;;13.54;94.45
46392;BME280;32098;49.448;7.904;2022-10-16T03:19:43;97948.38;;;13.50;94.00
46392;BME280;32098;49.448;7.904;2022-10-16T03:22:10;97986.34;;;13.64;93.73
46392;BME280;32098;49.448;7.904;2022-10-16T03:24:37;97958.28;;;13.50;93.10
46392;BME280;32098;49.448;7.904;2022-10-16T03:27:04;98004.16;;;13.75;92.73
46392;BME280;32098;49.448;7.904;2022-10-16T03:29:30;97977.16;;;13.55;92.75
46392;BME280;32098;49.448;7.904;2022-10-16T03:31:59;98002.84;;;13.78;92.24
46392;BME280;32098;49.448;7.904;2022-10-16T03:34:26;97932.38;;;13.34;91.90
46392;BME280;32098;49.448;7.904;2022-10-16T03:36:53;97936.97;;;13.38;91.62
46392;BME280;32098;49.448;7.904;2022-10-16T03:39:19;98010.63;;;13.79;91.66
46392;BME280;32098;49.448;7.904;2022-10-16T03:41:46;97962.09;;;13.54;91.34
46392;BME280;32098;49.448;7.904;2022-10-16T03:44:13;98000.22;;;13.83;91.06
46392;BME280;32098;49.448;7.904;2022-10-16T03:46:40;97981.75;;;13.59;90.89
46392;BME280;32098;49.448;7.904;2022-10-16T03:49:07;97938.59;;;13.39;90.86
46392;BME280;32098;49.448;7.904;2022-10-16T03:51:35;98000.44;;;13.81;90.80
46392;BME280;32098;49.448;7.904;2022-10-16T03:54:02;97994.50;;;13.74;90.68
46392;BME280;32098;49.448;7.904;2022-10-16T03:56:28;97971.00;;;13.59;91.03
46392;BME280;32098;49.448;7.904;2022-10-16T03:58:55;97922.19;;;13.36;90.65
46392;BME280;32098;49.448;7.904;2022-10-16T04:01:22;97997.63;;;13.66;91.65
46392;BME280;32098;49.448;7.904;2022-10-16T04:03:48;97988.16;;;13.58;91.76
46392;BME280;32098;49.448;7.904;2022-10-16T04:06:15;97959.63;;;13.21;92.54
46392;BME280;32098;49.448;7.904;2022-10-16T04:08:43;97996.34;;;13.47;92.92
46392;BME280;32098;49.448;7.904;2022-10-16T04:11:10;97981.84;;;13.43;93.00
46392;BME280;32098;49.448;7.904;2022-10-16T04:13:36;97862.00;;;12.68;92.64
46392;BME280;32098;49.448;7.904;2022-10-16T04:16:03;97876.88;;;12.54;92.67
46392;BME280;32098;49.448;7.904;2022-10-16T04:18:31;97983.22;;;13.24;92.46
46392;BME280;32098;49.448;7.904;2022-10-16T04:21:03;98018.09;;;13.45;92.04
46392;BME280;32098;49.448;7.904;2022-10-16T04:23:30;97893.88;;;12.65;91.84
46392;BME280;32098;49.448;7.904;2022-10-16T04:25:59;97960.50;;;13.04;92.40
46392;BME280;32098;49.448;7.904;2022-10-16T04:28:26;97983.00;;;13.25;92.19
46392;BME280;32098;49.448;7.904;2022-10-16T04:30:53;97956.31;;;13.14;92.29
46392;BME280;32098;49.448;7.904;2022-10-16T04:33:20;98016.94;;;13.41;92.58
46392;BME280;32098;49.448;7.904;2022-10-16T04:35:46;97973.59;;;13.23;92.79
46392;BME280;32098;49.448;7.904;2022-10-16T04:38:14;97972.56;;;13.29;92.62
46392;BME280;32098;49.448;7.904;2022-10-16T04:40:42;97963.16;;;13.26;92.38
46392;BME280;32098;49.448;7.904;2022-10-16T04:43:09;97991.91;;;13.31;92.08
46392;BME280;32098;49.448;7.904;2022-10-16T04:45:35;98008.56;;;13.33;92.44
46392;BME280;32098;49.448;7.904;2022-10-16T04:48:02;97996.91;;;13.22;92.60
46392;BME280;32098;49.448;7.904;2022-10-16T04:50:29;97998.00;;;13.26;92.53
46392;BME280;32098;49.448;7.904;2022-10-16T04:53:06;97975.78;;;13.04;93.13
46392;BME280;32098;49.448;7.904;2022-10-16T04:55:33;97972.59;;;13.07;93.87
46392;BME280;32098;49.448;7.904;2022-10-16T04:57:59;97989.56;;;13.13;94.42
46392;BME280;32098;49.448;7.904;2022-10-16T05:00:26;97973.31;;;12.97;95.00
46392;BME280;32098;49.448;7.904;2022-10-16T05:02:54;97978.22;;;13.06;95.15
46392;BME280;32098;49.448;7.904;2022-10-16T05:05:21;98000.28;;;13.13;95.25
46392;BME280;32098;49.448;7.904;2022-10-16T05:07:48;97982.03;;;13.10;94.70
46392;BME280;32098;49.448;7.904;2022-10-16T05:10:16;97924.34;;;12.80;94.50
46392;BME280;32098;49.448;7.904;2022-10-16T05:12:42;97965.66;;;12.84;95.40
46392;BME280;32098;49.448;7.904;2022-10-16T05:15:09;97998.66;;;13.12;95.40
46392;BME280;32098;49.448;7.904;2022-10-16T05:17:36;97986.16;;;12.95;95.22
46392;BME280;32098;49.448;7.904;2022-10-16T05:20:10;98005.88;;;13.11;95.41
46392;BME280;32098;49.448;7.904;2022-10-16T05:22:37;98025.53;;;13.17;94.71
46392;BME280;32098;49.448;7.904;2022-10-16T05:25:06;97999.63;;;13.00;94.10
46392;BME280;32098;49.448;7.904;2022-10-16T05:27:32;97928.88;;;12.58;94.63
46392;BME280;32098;49.448;7.904;2022-10-16T05:29:59;97995.69;;;13.08;94.56
46392;BME280;32098;49.448;7.904;2022-10-16T05:32:26;97972.16;;;12.93;95.23
46392;BME280;32098;49.448;7.904;2022-10-16T05:34:54;97992.69;;;13.04;95.66
46392;BME280;32098;49.448;7.904;2022-10-16T05:37:21;97908.72;;;12.34;95.57
46392;BME280;32098;49.448;7.904;2022-10-16T05:39:48;98018.63;;;12.99;95.73
46392;BME280;32098;49.448;7.904;2022-10-16T05:42:14;98016.19;;;12.97;95.60
46392;BME280;32098;49.448;7.904;2022-10-16T05:44:41;98024.78;;;12.99;95.13
46392;BME280;32098;49.448;7.904;2022-10-16T05:47:09;98042.56;;;13.06;95.67
46392;BME280;32098;49.448;7.904;2022-10-16T05:49:37;97994.38;;;12.89;94.98
46392;BME280;32098;49.448;7.904;2022-10-16T05:52:09;98049.09;;;13.15;95.04
46392;BME280;32098;49.448;7.904;2022-10-16T05:54:36;97879.34;;;12.17;94.63
46392;BME280;32098;49.448;7.904;2022-10-16T05:57:03;98040.00;;;13.16;94.84
46392;BME280;32098;49.448;7.904;2022-10-16T05:59:32;98017.31;;;13.01;95.40
46392;BME280;32098;49.448;7.904;2022-10-16T06:02:00;98043.75;;;13.15;95.34
46392;BME280;32098;49.448;7.904;2022-10-16T06:04:26;98038.06;;;13.11;94.85
46392;BME280;32098;49.448;7.904;2022-10-16T06:06:58;98036.75;;;13.14;94.82
46392;BME280;32098;49.448;7.904;2022-10-16T06:09:26;97986.47;;;12.77;94.73
46392;BME280;32098;49.448;7.904;2022-10-16T06:11:53;98030.78;;;13.07;94.75
46392;BME280;32098;49.448;7.904;2022-10-16T06:14:19;97991.06;;;12.82;94.56
46392;BME280;32098;49.448;7.904;2022-10-16T06:16:46;98030.97;;;13.00;94.84
46392;BME280;32098;49.448;7.904;2022-10-16T06:19:13;98022.88;;;12.95;94.66
46392;BME280;32098;49.448;7.904;2022-10-16T06:21:40;97916.53;;;12.35;94.60
46392;BME280;32098;49.448;7.904;2022-10-16T06:24:06;98052.00;;;13.08;95.18
46392;BME280;32098;49.448;7.904;2022-10-16T06:26:33;98060.25;;;13.07;95.19
46392;BME280;32098;49.448;7.904;2022-10-16T06:29:00;98041.78;;;12.88;95.10
46392;BME280;32098;49.448;7.904;2022-10-16T06:31:28;98043.13;;;13.08;94.93
46392;BME280;32098;49.448;7.904;2022-10-16T06:33:58;98051.03;;;12.97;95.31
46392;BME280;32098;49.448;7.904;2022-10-16T06:36:25;98002.78;;;12.76;95.52
46392;BME280;32098;49.448;7.904;2022-10-16T06:38:52;98043.94;;;13.08;95.40
46392;BME280;32098;49.448;7.904;2022-10-16T06:41:21;98069.63;;;13.04;95.89
46392;BME280;32098;49.448;7.904;2022-10-16T06:43:48;98072.13;;;13.11;95.96
46392;BME280;32098;49.448;7.904;2022-10-16T06:46:18;98090.22;;;13.20;95.72
46392;BME280;32098;49.448;7.904;2022-10-16T06:48:45;98088.41;;;13.26;94.90
46392;BME280;32098;49.448;7.904;2022-10-16T06:51:14;98091.94;;;13.31;94.80
46392;BME280;32098;49.448;7.904;2022-10-16T06:53:52;98086.56;;;13.31;94.79
46392;BME280;32098;49.448;7.904;2022-10-16T06:56:30;98085.25;;;13.34;95.00
46392;BME280;32098;49.448;7.904;2022-10-16T06:58:58;98076.31;;;13.23;95.51
46392;BME280;32098;49.448;7.904;2022-10-16T07:01:26;98096.53;;;13.36;95.46
46392;BME280;32098;49.448;7.904;2022-10-16T07:03:52;98012.25;;;12.83;95.46
46392;BME280;32098;49.448;7.904;2022-10-16T07:06:23;98066.31;;;13.19;95.70
46392;BME280;32098;49.448;7.904;2022-10-16T07:08:50;98110.91;;;13.46;95.48
46392;BME280;32098;49.448;7.904;2022-10-16T07:11:20;98074.69;;;13.22;96.02
46392;BME280;32098;49.448;7.904;2022-10-16T07:13:51;98002.13;;;12.85;95.85
46392;BME280;32098;49.448;7.904;2022-10-16T07:16:24;98118.88;;;13.58;95.57
46392;BME280;32098;49.448;7.904;2022-10-16T07:18:51;98071.78;;;13.29;95.72
46392;BME280;32098;49.448;7.904;2022-10-16T07:21:26;98109.19;;;13.57;95.18
46392;BME280;32098;49.448;7.904;2022-10-16T07:23:55;98105.94;;;13.55;94.83
46392;BME280;32098;49.448;7.904;2022-10-16T07:26:23;98123.03;;;13.71;94.90
46392;BME280;32098;49.448;7.904;2022-10-16T07:28:50;98125.44;;;13.72;95.24
46392;BME280;32098;49.448;7.904;2022-10-16T07:31:19;98142.09;;;13.74;95.45
46392;BME280;32098;49.448;7.904;2022-10-16T07:33:47;98116.25;;;13.63;95.69
46392;BME280;32098;49.448;7.904;2022-10-16T07:36:15;98077.78;;;13.36;95.48
46392;BME280;32098;49.448;7.904;2022-10-16T07:38:42;98144.91;;;13.84;95.74
46392;BME280;32098;49.448;7.904;2022-10-16T07:41:14;98155.63;;;13.84;95.94
46392;BME280;32098;49.448;7.904;2022-10-16T07:43:48;98127.47;;;13.60;96.10
46392;BME280;32098;49.448;7.904;2022-10-16T07:46:17;98168.81;;;13.86;96.15
46392;BME280;32098;49.448;7.904;2022-10-16T07:48:44;98137.28;;;13.76;95.90
46392;BME280;32098;49.448;7.904;2022-10-16T07:51:15;98158.88;;;13.86;96.42
46392;BME280;32098;49.448;7.904;2022-10-16T07:53:42;98048.00;;;13.11;96.69
46392;BME280;32098;49.448;7.904;2022-10-16T07:56:09;98060.66;;;13.15;97.60
46392;BME280;32098;49.448;7.904;2022-10-16T07:58:36;98143.41;;;13.50;97.84
46392;BME280;32098;49.448;7.904;2022-10-16T08:01:08;98182.84;;;13.71;98.06
46392;BME280;32098;49.448;7.904;2022-10-16T08:03:35;98218.69;;;13.60;99.38
46392;BME280;32098;49.448;7.904;2022-10-16T08:06:03;98223.91;;;13.50;99.35
46392;BME280;32098;49.448;7.904;2022-10-16T08:08:30;98240.47;;;13.63;99.58
46392;BME280;32098;49.448;7.904;2022-10-16T08:10:57;98218.63;;;13.55;99.47
46392;BME280;32098;49.448;7.904;2022-10-16T08:13:24;98177.47;;;13.28;100.00
46392;BME280;32098;49.448;7.904;2022-10-16T08:15:50;98221.31;;;13.55;100.00
46392;BME280;32098;49.448;7.904;2022-10-16T08:18:17;98205.28;;;13.60;100.00
46392;BME280;32098;49.448;7.904;2022-10-16T08:20:44;98242.84;;;13.82;100.00
46392;BME280;32098;49.448;7.904;2022-10-16T08:23:12;98198.78;;;13.78;100.00
46392;BME280;32098;49.448;7.904;2022-10-16T08:25:40;98248.25;;;14.03;100.00
46392;BME280;32098;49.448;7.904;2022-10-16T08:28:10;98241.28;;;14.07;100.00
46392;BME280;32098;49.448;7.904;2022-10-16T08:30:37;98224.25;;;13.97;100.00
46392;BME280;32098;49.448;7.904;2022-10-16T08:33:04;98233.50;;;14.06;100.00
46392;BME280;32098;49.448;7.904;2022-10-16T08:35:31;98230.91;;;14.16;100.00
46392;BME280;32098;49.448;7.904;2022-10-16T08:37:57;98226.72;;;14.25;100.00
46392;BME280;32098;49.448;7.904;2022-10-16T08:40:29;98241.81;;;14.53;100.00
46392;BME280;32098;49.448;7.904;2022-10-16T08:43:08;98244.59;;;14.63;100.00
46392;BME280;32098;49.448;7.904;2022-10-16T08:45:58;98247.38;;;14.73;100.00
46392;BME280;32098;49.448;7.904;2022-10-16T08:51:05;98230.09;;;14.69;96.88
46392;BME280;32098;49.448;7.904;2022-10-16T08:53:46;98237.25;;;14.85;96.80
46392;BME280;32098;49.448;7.904;2022-10-16T08:56:17;98241.31;;;14.87;97.22
46392;BME280;32098;49.448;7.904;2022-10-16T08:58:46;98262.72;;;15.09;97.45
46392;BME280;32098;49.448;7.904;2022-10-16T09:01:17;98235.00;;;15.04;96.90
46392;BME280;32098;49.448;7.904;2022-10-16T09:03:59;98253.06;;;15.13;97.42
46392;BME280;32098;49.448;7.904;2022-10-16T09:07:12;98249.84;;;15.16;96.69
46392;BME280;32098;49.448;7.904;2022-10-16T09:09:43;98265.59;;;15.34;96.88
46392;BME280;32098;49.448;7.904;2022-10-16T09:12:21;98257.56;;;15.44;97.68
46392;BME280;32098;49.448;7.904;2022-10-16T09:18:16;98258.81;;;15.64;95.52
46392;BME280;32098;49.448;7.904;2022-10-16T09:20:55;98273.75;;;15.96;95.72
46392;BME280;32098;49.448;7.904;2022-10-16T09:23:29;98271.16;;;16.21;94.71
46392;BME280;32098;49.448;7.904;2022-10-16T09:25:58;98207.53;;;16.00;92.30
46392;BME280;32098;49.448;7.904;2022-10-16T09:28:25;98278.59;;;16.51;90.21
46392;BME280;32098;49.448;7.904;2022-10-16T09:30:53;98248.34;;;16.44;89.66
46392;BME280;32098;49.448;7.904;2022-10-16T09:33:24;98285.09;;;16.80;89.81
46392;BME280;32098;49.448;7.904;2022-10-16T09:35:54;98282.94;;;16.82;87.38
46392;BME280;32098;49.448;7.904;2022-10-16T09:38:29;98288.34;;;16.88;85.33
46392;BME280;32098;49.448;7.904;2022-10-16T09:40:58;98266.75;;;16.88;85.26
46392;BME280;32098;49.448;7.904;2022-10-16T09:43:40;98278.38;;;16.98;85.31
46392;BME280;32098;49.448;7.904;2022-10-16T09:46:40;98295.09;;;17.15;86.48
46392;BME280;32098;49.448;7.904;2022-10-16T09:49:25;98292.72;;;17.24;85.60
46392;BME280;32098;49.448;7.904;2022-10-16T09:52:04;98276.75;;;17.12;84.96
46392;BME280;32098;49.448;7.904;2022-10-16T09:54:37;98276.50;;;17.14;84.82
46392;BME280;32098;49.448;7.904;2022-10-16T09:57:06;98236.00;;;16.89;84.66
46392;BME280;32098;49.448;7.904;2022-10-16T09:59:33;98280.53;;;17.16;85.27
46392;BME280;32098;49.448;7.904;2022-10-16T10:02:11;98294.31;;;17.25;85.39
46392;BME280;32098;49.448;7.904;2022-10-16T10:04:46;98179.38;;;16.53;85.09
46392;BME280;32098;49.448;7.904;2022-10-16T10:07:20;98258.38;;;17.14;85.72
46392;BME280;32098;49.448;7.904;2022-10-16T10:09:47;98229.28;;;17.06;84.33
46392;BME280;32098;49.448;7.904;2022-10-16T10:14:53;98289.34;;;17.82;82.38
46392;BME280;32098;49.448;7.904;2022-10-16T10:17:26;98307.97;;;17.94;82.73
46392;BME280;32098;49.448;7.904;2022-10-16T10:19:55;98226.25;;;17.48;81.86
46392;BME280;32098;49.448;7.904;2022-10-16T10:22:30;98310.88;;;18.18;79.07
46392;BME280;32098;49.448;7.904;2022-10-16T10:27:59;98286.53;;;18.23;78.16
46392;BME280;32098;49.448;7.904;2022-10-16T10:33:17;98275.00;;;17.87;77.38
46392;BME280;32098;49.448;7.904;2022-10-16T10:38:51;98288.97;;;18.29;79.86
46392;BME280;32098;49.448;7.904;2022-10-16T10:46:50;98296.72;;;18.41;79.05
46392;BME280;32098;49.448;7.904;2022-10-16T10:52:33;98314.78;;;18.55;76.17
46392;BME280;32098;49.448;7.904;2022-10-16T10:57:31;98314.78;;;18.55;76.19
46392;BME280;32098;49.448;7.904;2022-10-16T11:03:12;98322.97;;;18.40;76.83
46392;BME280;32098;49.448;7.904;2022-10-16T11:06:07;98289.63;;;18.50;75.53
46392;BME280;32098;49.448;7.904;2022-10-16T11:08:42;98297.16;;;18.63;76.06
46392;BME280;32098;49.448;7.904;2022-10-16T11:11:24;98316.66;;;18.55;75.36
46392;BME280;32098;49.448;7.904;2022-10-16T11:13:58;98316.13;;;18.53;75.50
46392;BME280;32098;49.448;7.904;2022-10-16T11:16:34;98314.56;;;18.47;76.49
46392;BME280;32098;49.448;7.904;2022-10-16T11:22:00;98277.88;;;18.26;76.82
46392;BME280;32098;49.448;7.904;2022-10-16T11:24:39;98322.06;;;18.55;75.55
46392;BME280;32098;49.448;7.904;2022-10-16T11:27:09;98288.94;;;18.34;75.43
46392;BME280;32098;49.448;7.904;2022-10-16T11:29:58;98219.88;;;17.93;74.67
46392;BME280;32098;49.448;7.904;2022-10-16T11:32:40;98274.13;;;18.22;74.89
46392;BME280;32098;49.448;7.904;2022-10-16T11:35:19;98250.38;;;18.03;75.38
46392;BME280;32098;49.448;7.904;2022-10-16T11:37:49;98290.31;;;18.27;75.96
46392;BME280;32098;49.448;7.904;2022-10-16T11:42:59;98293.75;;;18.42;76.07
46392;BME280;32098;49.448;7.904;2022-10-16T11:45:42;98302.13;;;18.46;75.79
46392;BME280;32098;49.448;7.904;2022-10-16T11:50:54;98280.59;;;18.26;76.42
46392;BME280;32098;49.448;7.904;2022-10-16T11:55:55;98246.59;;;18.09;76.38
46392;BME280;32098;49.448;7.904;2022-10-16T11:58:35;98261.66;;;18.26;76.15
46392;BME280;32098;49.448;7.904;2022-10-16T12:09:27;98291.00;;;18.47;75.86
46392;BME280;32098;49.448;7.904;2022-10-16T12:11:56;98279.97;;;18.39;74.96
46392;BME280;32098;49.448;7.904;2022-10-16T12:17:33;98288.47;;;18.66;74.85
46392;BME280;32098;49.448;7.904;2022-10-16T12:23:02;98272.94;;;18.87;74.06
46392;BME280;32098;49.448;7.904;2022-10-16T12:25:39;98235.19;;;18.66;71.61
46392;BME280;32098;49.448;7.904;2022-10-16T12:30:42;98264.38;;;19.08;72.94
46392;BME280;32098;49.448;7.904;2022-10-16T12:33:28;98268.72;;;19.09;72.77
46392;BME280;32098;49.448;7.904;2022-10-16T12:35:58;98248.78;;;18.95;72.47
46392;BME280;32098;49.448;7.904;2022-10-16T12:38:26;98261.63;;;19.13;72.35
46392;BME280;32098;49.448;7.904;2022-10-16T12:41:00;98245.00;;;18.96;71.74
46392;BME280;32098;49.448;7.904;2022-10-16T12:43:37;98222.91;;;18.79;73.36
46392;BME280;32098;49.448;7.904;2022-10-16T12:48:38;98250.97;;;18.93;72.83
46392;BME280;32098;49.448;7.904;2022-10-16T12:51:24;98261.25;;;18.96;73.22
46392;BME280;32098;49.448;7.904;2022-10-16T12:54:13;98272.53;;;19.03;73.26
46392;BME280;32098;49.448;7.904;2022-10-16T13:13:20;98201.84;;;18.32;75.78
46392;BME280;32098;49.448;7.904;2022-10-16T13:15:58;98271.91;;;18.72;76.47
46392;BME280;32098;49.448;7.904;2022-10-16T13:18:40;98279.19;;;18.77;75.94
46392;BME280;32098;49.448;7.904;2022-10-16T13:24:23;98274.47;;;18.59;76.09
46392;BME280;32098;49.448;7.904;2022-10-16T13:29:42;98251.34;;;18.33;75.78
46392;BME280;32098;49.448;7.904;2022-10-16T13:32:10;98286.44;;;18.43;76.87
46392;BME280;32098;49.448;7.904;2022-10-16T13:34:48;98244.41;;;18.17;77.42
46392;BME280;32098;49.448;7.904;2022-10-16T13:37:18;98282.13;;;18.42;77.35
46392;BME280;32098;49.448;7.904;2022-10-16T13:39:45;98220.38;;;18.00;78.18
46392;BME280;32098;49.448;7.904;2022-10-16T13:42:27;98254.94;;;18.18;77.76
46392;BME280;32098;49.448;7.904;2022-10-16T13:44:56;98247.13;;;18.12;78.01
46392;BME280;32098;49.448;7.904;2022-10-16T13:47:25;98279.16;;;18.38;78.32
46392;BME280;32098;49.448;7.904;2022-10-16T13:50:19;98287.00;;;18.35;78.88
46392;BME280;32098;49.448;7.904;2022-10-16T13:52:47;98285.44;;;18.29;78.89
46392;BME280;32098;49.448;7.904;2022-10-16T13:55:16;98248.19;;;18.16;78.75
46392;BME280;32098;49.448;7.904;2022-10-16T13:57:43;98247.38;;;18.15;78.95
46392;BME280;32098;49.448;7.904;2022-10-16T14:02:51;98293.00;;;18.32;79.37
46392;BME280;32098;49.448;7.904;2022-10-16T14:05:18;98243.88;;;18.04;79.21
46392;BME280;32098;49.448;7.904;2022-10-16T14:07:49;98292.47;;;18.25;79.84
46392;BME280;32098;49.448;7.904;2022-10-16T14:10:30;98294.09;;;18.26;80.05
46392;BME280;32098;49.448;7.904;2022-10-16T14:13:00;98224.00;;;17.80;79.72
46392;BME280;32098;49.448;7.904;2022-10-16T14:15:30;98298.97;;;18.29;79.47
46392;BME280;32098;49.448;7.904;2022-10-16T14:17:58;98288.19;;;18.19;80.26
46392;BME280;32098;49.448;7.904;2022-10-16T14:20:30;98306.53;;;18.27;81.40
46392;BME280;32098;49.448;7.904;2022-10-16T14:23:20;98251.03;;;17.75;78.40
46392;BME280;32098;49.448;7.904;2022-10-16T14:25:48;98211.88;;;17.68;77.69
46392;BME280;32098;49.448;7.904;2022-10-16T14:28:23;98226.69;;;17.80;77.01
46392;BME280;32098;49.448;7.904;2022-10-16T14:30:56;98234.53;;;17.72;76.25
46392;BME280;32098;49.448;7.904;2022-10-16T14:33:31;98227.25;;;17.72;75.57
46392;BME280;32098;49.448;7.904;2022-10-16T14:36:01;98309.28;;;18.17;74.97
46392;BME280;32098;49.448;7.904;2022-10-16T14:38:29;98245.28;;;17.87;75.20
46392;BME280;32098;49.448;7.904;2022-10-16T14:40:57;98312.53;;;18.14;75.28
46392;BME280;32098;49.448;7.904;2022-10-16T14:43:40;98294.72;;;18.07;75.29
46392;BME280;32098;49.448;7.904;2022-10-16T14:46:14;98300.06;;;18.23;75.53
46392;BME280;32098;49.448;7.904;2022-10-16T14:48:42;98235.88;;;17.79;76.22
46392;BME280;32098;49.448;7.904;2022-10-16T14:51:17;98310.63;;;18.19;74.54
46392;BME280;32098;49.448;7.904;2022-10-16T14:53:45;98279.81;;;18.05;74.29
46392;BME280;32098;49.448;7.904;2022-10-16T14:56:20;98310.38;;;18.16;74.12
46392;BME280;32098;49.448;7.904;2022-10-16T14:58:49;98291.47;;;18.05;74.21